Time,TemperatureF,DewpointF,PressureIn,WindDirection,WindDirectionDegrees,WindSpeedMPH,WindSpeedGustMPH,Humidity,HourlyPrecipIn,Conditions,Clouds,dailyrainin,SoftwareType,DateUTC
2013-01-24 00:57:00,11.3,0.8,29.67,NNE,23,5.8,5.8,62,0.00,,,0.00,WUHU21623XXSP,2013-01-24 06:57:00,
2013-01-24 01:57:00,10.0,-1.1,29.70,NE,45,5.1,5.1,60,0.00,,,0.00,WUHU21623XXSP,2013-01-24 07:57:00,
2013-01-24 02:57:00,8.6,-2.1,29.71,NNE,23,4.5,4.5,61,0.00,,,0.00,WUHU21623XXSP,2013-01-24 08:57:00,
2013-01-24 03:57:00,7.7,-3.3,29.74,NE,45,5.4,5.4,60,0.00,,,0.00,WUHU21623XXSP,2013-01-24 09:57:00,
2013-01-24 04:57:00,7.0,-3.9,29.77,NNE,23,3.6,3.6,60,0.00,,,0.00,WUHU21623XXSP,2013-01-24 10:57:00,
2013-01-24 06:06:00,6.6,-4.3,29.78,NE,45,6.9,6.9,60,0.00,,,0.00,WUHU21623XXSP,2013-01-24 12:06:00,
2013-01-24 06:11:00,6.6,-4.4,29.79,NE,45,0.0,2.0,60,0.00,,,0.00,WUHU21623XXSP,2013-01-24 12:11:00,
2013-01-24 06:16:00,6.6,-4.4,29.79,NE,45,3.8,12.3,60,0.00,,,0.00,WUHU21623XXSP,2013-01-24 12:16:00,
2013-01-24 06:21:00,6.6,-4.4,29.79,NE,45,6.9,12.3,60,0.00,,,0.00,WUHU21623XXSP,2013-01-24 12:21:00,
2013-01-24 06:26:00,6.6,-4.7,29.79,NNE,22,4.0,6.9,59,0.00,,,0.00,WUHU21623XXSP,2013-01-24 12:26:00,
2013-01-24 06:31:00,6.6,-4.7,29.80,NE,45,5.8,5.8,59,0.00,,,0.00,WUHU21623XXSP,2013-01-24 12:31:00,
2013-01-24 06:36:00,6.4,-4.9,29.79,NNE,22,3.4,5.8,59,0.00,,,0.00,WUHU21623XXSP,2013-01-24 12:36:00,
2013-01-24 06:41:00,6.4,-4.9,29.79,NE,45,3.8,7.2,59,0.00,,,0.00,WUHU21623XXSP,2013-01-24 12:41:00,
2013-01-24 06:46:00,6.4,-4.9,29.79,NE,45,2.7,7.2,59,0.00,,,0.00,WUHU21623XXSP,2013-01-24 12:46:00,
2013-01-24 06:51:00,6.4,-4.9,29.79,NE,45,5.1,6.5,59,0.00,,,0.00,WUHU21623XXSP,2013-01-24 12:51:00,
2013-01-24 06:56:00,6.4,-4.9,29.79,NNE,22,9.6,9.6,59,0.00,,,0.00,WUHU21623XXSP,2013-01-24 12:56:00,
2013-01-24 07:01:00,6.4,-4.9,29.80,NE,45,6.3,9.6,59,0.00,,,0.00,WUHU21623XXSP,2013-01-24 13:01:00,
2013-01-24 07:06:00,6.4,-4.9,29.80,NNE,22,1.8,7.4,59,0.00,,,0.00,WUHU21623XXSP,2013-01-24 13:06:00,
2013-01-24 07:11:00,6.4,-4.9,29.81,NNE,22,2.9,7.4,59,0.00,,,0.00,WUHU21623XXSP,2013-01-24 13:11:00,
2013-01-24 07:16:00,6.4,-4.9,29.79,NNE,22,6.3,6.3,59,0.00,,,0.00,WUHU21623XXSP,2013-01-24 13:16:00,
2013-01-24 07:21:00,6.4,-4.9,29.80,NNE,22,5.4,6.3,59,0.00,,,0.00,WUHU21623XXSP,2013-01-24 13:21:00,
2013-01-24 07:26:00,6.3,-4.9,29.80,NNE,22,1.1,6.3,59,0.00,,,0.00,WUHU21623XXSP,2013-01-24 13:26:00,
2013-01-24 07:31:00,6.4,-4.9,29.80,NE,45,4.5,4.5,59,0.00,,,0.00,WUHU21623XXSP,2013-01-24 13:31:00,
2013-01-24 07:36:00,6.3,-5.1,29.79,NNE,22,3.6,4.5,59,0.00,,,0.00,WUHU21623XXSP,2013-01-24 13:36:00,
2013-01-24 07:41:00,6.3,-5.1,29.80,NNE,22,4.3,7.2,59,0.00,,,0.00,WUHU21623XXSP,2013-01-24 13:41:00,
2013-01-24 07:46:00,6.4,-4.9,29.81,NNE,22,3.6,7.2,59,0.00,,,0.00,WUHU21623XXSP,2013-01-24 13:46:00,
2013-01-24 07:51:00,6.4,-4.5,29.82,NNE,22,5.1,5.1,60,0.00,,,0.00,WUHU21623XXSP,2013-01-24 13:51:00,
2013-01-24 07:56:00,6.6,-4.4,29.81,NNE,22,1.8,5.1,60,0.00,,,0.00,WUHU21623XXSP,2013-01-24 13:56:00,
2013-01-24 08:01:00,6.6,-4.4,29.82,NE,45,7.2,7.2,60,0.00,,,0.00,WUHU21623XXSP,2013-01-24 14:01:00,
2013-01-24 08:06:00,7.0,-4.4,29.81,NNE,22,5.1,7.2,60,0.00,,,0.00,WUHU21623XXSP,2013-01-24 14:06:00,
2013-01-24 08:11:00,7.0,-4.0,29.82,NNE,22,5.1,5.1,60,0.00,,,0.00,WUHU21623XXSP,2013-01-24 14:11:00,
2013-01-24 08:16:00,7.3,-3.9,29.83,NNE,22,5.1,5.1,60,0.00,,,0.00,WUHU21623XXSP,2013-01-24 14:16:00,
2013-01-24 08:21:00,7.5,-3.9,29.84,NE,45,0.0,5.1,59,0.00,,,0.00,WUHU21623XXSP,2013-01-24 14:21:00,
2013-01-24 08:26:00,7.7,-3.9,29.84,NE,45,0.0,5.1,59,0.00,,,0.00,WUHU21623XXSP,2013-01-24 14:26:00,
2013-01-24 08:31:00,8.1,-3.6,29.83,NE,45,0.9,0.9,58,0.00,,,0.00,WUHU21623XXSP,2013-01-24 14:31:00,
2013-01-24 08:36:00,8.1,-3.8,29.84,NE,45,0.0,6.3,58,0.00,,,0.00,WUHU21623XXSP,2013-01-24 14:36:00,
2013-01-24 08:41:00,8.4,-3.5,29.83,ENE,67,3.1,6.3,58,0.00,,,0.00,WUHU21623XXSP,2013-01-24 14:41:00,
2013-01-24 08:46:00,8.4,-3.5,29.84,ENE,67,3.1,6.3,58,0.00,,,0.00,WUHU21623XXSP,2013-01-24 14:46:00,
2013-01-24 08:51:00,8.8,-3.1,29.84,NE,45,1.8,3.1,58,0.00,,,0.00,WUHU21623XXSP,2013-01-24 14:51:00,
2013-01-24 08:56:00,9.0,-3.0,29.84,NE,45,3.6,3.6,58,0.00,,,0.00,WUHU21623XXSP,2013-01-24 14:56:00,
2013-01-24 09:01:00,9.1,-3.0,29.84,NE,45,4.7,4.7,57,0.00,,,0.00,WUHU21623XXSP,2013-01-24 15:01:00,
2013-01-24 09:06:00,9.1,-3.2,29.83,NE,45,2.9,4.7,57,0.00,,,0.00,WUHU21623XXSP,2013-01-24 15:06:00,
2013-01-24 09:11:00,9.3,-3.0,29.83,NE,45,4.0,5.8,57,0.00,,,0.00,WUHU21623XXSP,2013-01-24 15:11:00,
2013-01-24 09:16:00,9.7,-2.6,29.84,NE,45,3.1,5.8,57,0.00,,,0.00,WUHU21623XXSP,2013-01-24 15:16:00,
2013-01-24 09:21:00,9.7,-2.6,29.83,NE,45,5.6,5.6,57,0.00,,,0.00,WUHU21623XXSP,2013-01-24 15:21:00,
2013-01-24 09:26:00,9.9,-2.8,29.83,NE,45,7.6,7.6,56,0.00,,,0.00,WUHU21623XXSP,2013-01-24 15:26:00,
2013-01-24 09:31:00,10.0,-2.6,29.83,ENE,67,2.0,7.6,56,0.00,,,0.00,WUHU21623XXSP,2013-01-24 15:31:00,
2013-01-24 09:36:00,10.6,-2.1,29.83,NE,45,2.9,4.7,56,0.00,,,0.00,WUHU21623XXSP,2013-01-24 15:36:00,
2013-01-24 09:41:00,10.8,-1.9,29.82,NE,45,0.0,4.0,56,0.00,,,0.00,WUHU21623XXSP,2013-01-24 15:41:00,
2013-01-24 09:46:00,11.1,-1.6,29.82,NE,45,2.0,4.0,56,0.00,,,0.00,WUHU21623XXSP,2013-01-24 15:46:00,
2013-01-24 09:51:00,11.7,-1.1,29.82,NE,45,4.0,5.6,56,0.00,,,0.00,WUHU21623XXSP,2013-01-24 15:51:00,
2013-01-24 09:56:00,11.8,-1.0,29.82,ENE,67,0.0,5.6,56,0.00,,,0.00,WUHU21623XXSP,2013-01-24 15:56:00,
2013-01-24 10:01:00,12.2,-0.7,29.82,ESE,112,0.0,2.0,56,0.00,,,0.00,WUHU21623XXSP,2013-01-24 16:01:00,
2013-01-24 10:06:00,12.9,0.0,29.82,ENE,67,1.6,3.8,56,0.00,,,0.00,WUHU21623XXSP,2013-01-24 16:06:00,
2013-01-24 10:11:00,13.6,0.3,29.82,NE,45,0.9,5.1,55,0.00,,,0.00,WUHU21623XXSP,2013-01-24 16:11:00,
2013-01-24 10:16:00,13.8,0.5,29.83,NE,45,0.7,5.1,55,0.00,,,0.00,WUHU21623XXSP,2013-01-24 16:16:00,
2013-01-24 10:21:00,14.5,0.8,29.82,NE,45,0.0,0.7,54,0.00,,,0.00,WUHU21623XXSP,2013-01-24 16:21:00,
2013-01-24 10:26:00,15.1,1.0,29.83,SE,135,0.0,0.0,54,0.00,,,0.00,WUHU21623XXSP,2013-01-24 16:26:00,
2013-01-24 10:31:00,15.4,1.3,29.83,NE,45,3.4,3.4,53,0.00,,,0.00,WUHU21623XXSP,2013-01-24 16:31:00,
2013-01-24 10:36:00,15.6,1.5,29.83,NE,45,4.7,4.7,53,0.00,,,0.00,WUHU21623XXSP,2013-01-24 16:36:00,
2013-01-24 10:41:00,15.6,1.1,29.82,ENE,67,0.0,4.7,52,0.00,,,0.00,WUHU21623XXSP,2013-01-24 16:41:00,
2013-01-24 10:46:00,15.8,1.3,29.82,NE,45,3.4,3.4,52,0.00,,,0.00,WUHU21623XXSP,2013-01-24 16:46:00,
2013-01-24 10:51:00,16.2,1.6,29.82,ESE,112,0.0,3.4,52,0.00,,,0.00,WUHU21623XXSP,2013-01-24 16:51:00,
2013-01-24 10:56:00,16.3,1.7,29.82,SE,135,4.7,4.7,52,0.00,,,0.00,WUHU21623XXSP,2013-01-24 16:56:00,
2013-01-24 11:01:00,16.7,2.1,29.82,SE,135,0.0,4.7,52,0.00,,,0.00,WUHU21623XXSP,2013-01-24 17:01:00,
2013-01-24 11:06:00,17.1,1.8,29.81,East,90,0.0,2.5,51,0.00,,,0.00,WUHU21623XXSP,2013-01-24 17:06:00,
2013-01-24 11:11:00,17.2,2.2,29.80,ENE,67,3.6,3.6,51,0.00,,,0.00,WUHU21623XXSP,2013-01-24 17:11:00,
2013-01-24 11:16:00,17.4,2.3,29.80,SSE,157,6.5,6.5,51,0.00,,,0.00,WUHU21623XXSP,2013-01-24 17:16:00,
2013-01-24 11:21:00,17.8,2.3,29.80,ESE,112,1.6,6.5,50,0.00,,,0.00,WUHU21623XXSP,2013-01-24 17:21:00,
2013-01-24 11:26:00,18.0,2.4,29.80,ESE,112,0.0,1.8,50,0.00,,,0.00,WUHU21623XXSP,2013-01-24 17:26:00,
2013-01-24 11:31:00,18.1,2.6,29.79,NE,45,2.5,6.5,50,0.00,,,0.00,WUHU21623XXSP,2013-01-24 17:31:00,
2013-01-24 11:36:00,18.5,2.9,29.79,ESE,112,0.0,6.5,50,0.00,,,0.00,WUHU21623XXSP,2013-01-24 17:36:00,
2013-01-24 11:41:00,18.7,3.1,29.78,SSE,157,2.0,2.0,50,0.00,,,0.00,WUHU21623XXSP,2013-01-24 17:41:00,
2013-01-24 11:46:00,19.0,3.4,29.78,ESE,112,0.0,2.0,50,0.00,,,0.00,WUHU21623XXSP,2013-01-24 17:46:00,
2013-01-24 11:51:00,19.2,3.1,29.78,NE,45,0.0,3.8,49,0.00,,,0.00,WUHU21623XXSP,2013-01-24 17:51:00,
2013-01-24 11:56:00,19.6,3.4,29.78,SE,135,0.0,3.8,49,0.00,,,0.00,WUHU21623XXSP,2013-01-24 17:56:00,
2013-01-24 12:01:00,19.6,3.4,29.80,SSE,157,3.4,3.4,49,0.00,,,0.00,WUHU21623XXSP,2013-01-24 18:01:00,
2013-01-24 12:06:00,19.9,3.3,29.80,SE,135,0.7,3.4,48,0.00,,,0.00,WUHU21623XXSP,2013-01-24 18:06:00,
2013-01-24 12:11:00,20.1,3.5,29.79,SSE,157,0.0,3.6,48,0.00,,,0.00,WUHU21623XXSP,2013-01-24 18:11:00,
2013-01-24 12:16:00,20.7,3.9,29.79,SE,135,6.5,6.5,48,0.00,,,0.00,WUHU21623XXSP,2013-01-24 18:16:00,
2013-01-24 12:21:00,21.0,4.3,29.78,South,180,0.0,6.5,48,0.00,,,0.00,WUHU21623XXSP,2013-01-24 18:21:00,
2013-01-24 12:26:00,21.6,4.8,29.79,SE,135,4.5,4.5,48,0.00,,,0.00,WUHU21623XXSP,2013-01-24 18:26:00,
2013-01-24 12:31:00,21.7,4.9,29.80,SSE,157,0.0,4.5,48,0.00,,,0.00,WUHU21623XXSP,2013-01-24 18:31:00,
2013-01-24 12:36:00,22.3,5.5,29.78,SE,135,5.4,5.4,48,0.00,,,0.00,WUHU21623XXSP,2013-01-24 18:36:00,
2013-01-24 12:41:00,22.5,5.2,29.78,SSE,157,4.7,5.4,47,0.00,,,0.00,WUHU21623XXSP,2013-01-24 18:41:00,
2013-01-24 12:46:00,22.8,5.5,29.77,SE,135,3.6,5.4,47,0.00,,,0.00,WUHU21623XXSP,2013-01-24 18:46:00,
2013-01-24 12:51:00,22.6,4.9,29.77,SSW,202,0.0,4.9,46,0.00,,,0.00,WUHU21623XXSP,2013-01-24 18:51:00,
2013-01-24 12:56:00,22.8,5.0,29.76,SE,135,3.1,3.6,46,0.00,,,0.00,WUHU21623XXSP,2013-01-24 18:56:00,
2013-01-24 13:01:00,22.8,5.0,29.76,ESE,112,0.0,3.1,46,0.00,,,0.00,WUHU21623XXSP,2013-01-24 19:01:00,
2013-01-24 13:06:00,22.6,4.9,29.75,ESE,112,0.0,3.1,46,0.00,,,0.00,WUHU21623XXSP,2013-01-24 19:06:00,
2013-01-24 13:11:00,22.6,4.9,29.76,SSE,157,0.0,6.0,46,0.00,,,0.00,WUHU21623XXSP,2013-01-24 19:11:00,
2013-01-24 13:16:00,22.6,4.9,29.76,SE,135,6.3,6.3,46,0.00,,,0.00,WUHU21623XXSP,2013-01-24 19:16:00,
2013-01-24 13:21:00,22.8,5.0,29.75,ESE,112,0.0,6.3,46,0.00,,,0.00,WUHU21623XXSP,2013-01-24 19:21:00,
2013-01-24 13:26:00,22.8,5.0,29.74,SSE,157,4.9,4.9,46,0.00,,,0.00,WUHU21623XXSP,2013-01-24 19:26:00,
2013-01-24 13:31:00,23.0,5.2,29.74,SE,135,1.6,4.9,46,0.00,,,0.00,WUHU21623XXSP,2013-01-24 19:31:00,
2013-01-24 13:36:00,23.4,5.1,29.74,SE,135,0.0,5.8,45,0.00,,,0.00,WUHU21623XXSP,2013-01-24 19:36:00,
2013-01-24 13:41:00,23.5,5.2,29.73,SE,135,1.6,5.8,45,0.00,,,0.00,WUHU21623XXSP,2013-01-24 19:41:00,
2013-01-24 13:46:00,23.5,5.2,29.73,SSE,157,0.0,4.3,45,0.00,,,0.00,WUHU21623XXSP,2013-01-24 19:46:00,
2013-01-24 13:51:00,24.1,5.7,29.73,SSE,157,0.0,3.8,45,0.00,,,0.00,WUHU21623XXSP,2013-01-24 19:51:00,
2013-01-24 13:56:00,24.1,5.7,29.72,SE,135,4.7,4.7,45,0.00,,,0.00,WUHU21623XXSP,2013-01-24 19:56:00,
2013-01-24 14:01:00,24.4,5.5,29.72,SSE,157,0.0,6.5,44,0.00,,,0.00,WUHU21623XXSP,2013-01-24 20:01:00,
2013-01-24 14:06:00,24.4,5.5,29.72,SSE,157,0.0,6.5,44,0.00,,,0.00,WUHU21623XXSP,2013-01-24 20:06:00,
2013-01-24 14:11:00,24.3,5.4,29.71,SE,135,1.3,1.3,44,0.00,,,0.00,WUHU21623XXSP,2013-01-24 20:11:00,
2013-01-24 14:16:00,24.1,5.5,29.71,SSE,157,0.0,5.4,44,0.00,,,0.00,WUHU21623XXSP,2013-01-24 20:16:00,
2013-01-24 14:21:00,24.4,5.5,29.71,South,180,0.0,5.4,44,0.00,,,0.00,WUHU21623XXSP,2013-01-24 20:21:00,
2013-01-24 14:26:00,24.1,5.2,29.71,SE,135,0.4,3.4,44,0.00,,,0.00,WUHU21623XXSP,2013-01-24 20:26:00,
2013-01-24 14:31:00,23.9,5.2,29.72,SE,135,1.6,1.6,44,0.00,,,0.00,WUHU21623XXSP,2013-01-24 20:31:00,
2013-01-24 14:36:00,23.5,4.7,29.70,ESE,112,7.8,7.8,44,0.00,,,0.00,WUHU21623XXSP,2013-01-24 20:36:00,
2013-01-24 14:41:00,23.2,4.4,29.70,SE,135,0.0,7.8,44,0.00,,,0.00,WUHU21623XXSP,2013-01-24 20:41:00,
2013-01-24 14:46:00,23.2,4.4,29.70,SE,135,2.9,7.2,44,0.00,,,0.00,WUHU21623XXSP,2013-01-24 20:46:00,
2013-01-24 14:51:00,23.2,4.9,29.70,SE,135,2.0,7.2,45,0.00,,,0.00,WUHU21623XXSP,2013-01-24 20:51:00,
2013-01-24 14:56:00,23.4,5.1,29.69,SE,135,2.0,2.7,45,0.00,,,0.00,WUHU21623XXSP,2013-01-24 20:56:00,
2013-01-24 15:01:00,23.5,5.2,29.69,SE,135,0.0,2.7,45,0.00,,,0.00,WUHU21623XXSP,2013-01-24 21:01:00,
2013-01-24 15:06:00,23.5,5.2,29.68,SE,135,4.0,4.0,45,0.00,,,0.00,WUHU21623XXSP,2013-01-24 21:06:00,
2013-01-24 15:11:00,23.5,5.2,29.67,SE,135,0.7,8.7,45,0.00,,,0.00,WUHU21623XXSP,2013-01-24 21:11:00,
2013-01-24 15:16:00,23.5,5.4,29.67,SE,135,0.0,8.7,45,0.00,,,0.00,WUHU21623XXSP,2013-01-24 21:16:00,
2013-01-24 15:21:00,23.5,5.2,29.68,SE,135,0.0,0.0,45,0.00,,,0.00,WUHU21623XXSP,2013-01-24 21:21:00,
2013-01-24 15:26:00,23.4,5.1,29.67,SE,135,0.0,0.0,45,0.00,,,0.00,WUHU21623XXSP,2013-01-24 21:26:00,
2013-01-24 15:31:00,23.2,4.9,29.67,SE,135,6.0,6.3,45,0.00,,,0.00,WUHU21623XXSP,2013-01-24 21:31:00,
2013-01-24 15:36:00,22.8,5.0,29.67,SE,135,0.0,6.3,46,0.00,,,0.00,WUHU21623XXSP,2013-01-24 21:36:00,
2013-01-24 15:41:00,22.8,5.0,29.67,SE,135,4.7,4.7,46,0.00,,,0.00,WUHU21623XXSP,2013-01-24 21:41:00,
2013-01-24 15:46:00,22.6,4.9,29.67,ESE,112,5.4,5.4,46,0.00,,,0.00,WUHU21623XXSP,2013-01-24 21:46:00,
2013-01-24 15:51:00,22.6,4.9,29.67,SSE,157,0.0,5.4,46,0.00,,,0.00,WUHU21623XXSP,2013-01-24 21:51:00,
2013-01-24 15:56:00,22.3,4.5,29.67,SSE,157,6.9,6.9,46,0.00,,,0.00,WUHU21623XXSP,2013-01-24 21:56:00,
2013-01-24 16:01:00,22.5,5.2,29.67,ESE,112,0.9,6.9,47,0.00,,,0.00,WUHU21623XXSP,2013-01-24 22:01:00,
2013-01-24 16:06:00,22.3,5.0,29.66,SE,135,4.7,8.7,47,0.00,,,0.00,WUHU21623XXSP,2013-01-24 22:06:00,
2013-01-24 16:11:00,22.3,5.0,29.66,SE,135,0.0,8.7,47,0.00,,,0.00,WUHU21623XXSP,2013-01-24 22:11:00,
2013-01-24 16:16:00,22.1,5.0,29.66,SE,135,0.0,5.4,47,0.00,,,0.00,WUHU21623XXSP,2013-01-24 22:16:00,
2013-01-24 16:21:00,22.1,4.8,29.66,ESE,112,0.9,4.5,47,0.00,,,0.00,WUHU21623XXSP,2013-01-24 22:21:00,
2013-01-24 16:26:00,21.9,5.1,29.66,SE,135,0.0,4.5,48,0.00,,,0.00,WUHU21623XXSP,2013-01-24 22:26:00,
2013-01-24 16:31:00,21.9,5.1,29.65,SE,135,1.1,1.1,48,0.00,,,0.00,WUHU21623XXSP,2013-01-24 22:31:00,
2013-01-24 16:36:00,21.7,4.5,29.64,SE,135,1.6,1.6,47,0.00,,,0.00,WUHU21623XXSP,2013-01-24 22:36:00,
2013-01-24 16:41:00,21.6,4.5,29.64,SSE,157,5.4,5.4,47,0.00,,,0.00,WUHU21623XXSP,2013-01-24 22:41:00,
2013-01-24 16:46:00,21.6,4.8,29.64,SE,135,0.9,5.4,48,0.00,,,0.00,WUHU21623XXSP,2013-01-24 22:46:00,
2013-01-24 16:51:00,21.4,4.6,29.64,SSE,157,4.9,5.4,48,0.00,,,0.00,WUHU21623XXSP,2013-01-24 22:51:00,
2013-01-24 16:56:00,21.4,4.6,29.64,South,180,6.5,6.5,48,0.00,,,0.00,WUHU21623XXSP,2013-01-24 22:56:00,
2013-01-24 17:01:00,21.4,4.6,29.64,South,180,4.0,6.5,48,0.00,,,0.00,WUHU21623XXSP,2013-01-24 23:01:00,
2013-01-24 17:06:00,21.0,4.3,29.64,SE,135,4.9,4.9,48,0.00,,,0.00,WUHU21623XXSP,2013-01-24 23:06:00,
2013-01-24 17:11:00,21.0,4.7,29.63,SE,135,4.7,4.9,49,0.00,,,0.00,WUHU21623XXSP,2013-01-24 23:11:00,
2013-01-24 17:16:00,21.0,4.7,29.63,SE,135,3.4,4.7,49,0.00,,,0.00,WUHU21623XXSP,2013-01-24 23:16:00,
2013-01-24 17:21:00,21.0,4.7,29.63,SSE,157,4.9,4.9,49,0.00,,,0.00,WUHU21623XXSP,2013-01-24 23:21:00,
2013-01-24 17:26:00,21.0,4.7,29.64,SE,135,6.3,6.3,49,0.00,,,0.00,WUHU21623XXSP,2013-01-24 23:26:00,
2013-01-24 17:31:00,21.0,4.7,29.63,SSE,157,4.3,6.3,49,0.00,,,0.00,WUHU21623XXSP,2013-01-24 23:31:00,
2013-01-24 17:36:00,21.0,4.7,29.63,SSE,157,7.2,8.7,49,0.00,,,0.00,WUHU21623XXSP,2013-01-24 23:36:00,
2013-01-24 17:41:00,20.8,4.7,29.62,East,90,1.3,8.7,49,0.00,,,0.00,WUHU21623XXSP,2013-01-24 23:41:00,
2013-01-24 17:46:00,20.8,4.6,29.62,SSE,157,5.8,5.8,49,0.00,,,0.00,WUHU21623XXSP,2013-01-24 23:46:00,
2013-01-24 17:51:00,20.8,5.0,29.63,SE,135,3.6,5.8,50,0.00,,,0.00,WUHU21623XXSP,2013-01-24 23:51:00,
2013-01-24 17:56:00,20.8,5.0,29.62,SSE,157,9.2,9.2,50,0.00,,,0.00,WUHU21623XXSP,2013-01-24 23:56:00,
2013-01-24 18:01:00,20.8,5.0,29.62,SE,135,3.4,9.2,50,0.00,,,0.00,WUHU21623XXSP,2013-01-25 00:01:00,
2013-01-24 18:06:00,20.8,5.0,29.62,SE,135,3.1,6.7,50,0.00,,,0.00,WUHU21623XXSP,2013-01-25 00:06:00,
2013-01-24 18:12:00,20.8,5.0,29.62,SE,135,1.3,6.9,50,0.00,,,0.00,WUHU21623XXSP,2013-01-25 00:12:00,
2013-01-24 18:17:00,20.8,5.0,29.62,SE,135,7.2,7.2,50,0.00,,,0.00,WUHU21623XXSP,2013-01-25 00:17:00,
2013-01-24 18:22:00,20.7,4.9,29.62,ESE,112,3.1,7.2,50,0.00,,,0.00,WUHU21623XXSP,2013-01-25 00:22:00,
2013-01-24 18:27:00,20.7,4.9,29.61,SE,135,0.0,4.9,50,0.00,,,0.00,WUHU21623XXSP,2013-01-25 00:27:00,
2013-01-24 18:32:00,20.5,5.1,29.61,SE,135,6.5,6.5,51,0.00,,,0.00,WUHU21623XXSP,2013-01-25 00:32:00,
2013-01-24 18:37:00,20.5,5.1,29.61,SE,135,1.6,6.9,51,0.00,,,0.00,WUHU21623XXSP,2013-01-25 00:37:00,
2013-01-24 18:42:00,20.5,5.1,29.61,ESE,112,0.0,6.9,51,0.00,,,0.00,WUHU21623XXSP,2013-01-25 00:42:00,
2013-01-24 18:47:00,20.7,5.3,29.60,SSE,157,0.0,2.9,51,0.00,,,0.00,WUHU21623XXSP,2013-01-25 00:47:00,
2013-01-24 18:52:00,20.7,5.3,29.60,SSE,157,4.5,5.4,51,0.00,,,0.00,WUHU21623XXSP,2013-01-25 00:52:00,
2013-01-24 18:57:00,20.5,5.1,29.60,SE,135,1.3,5.4,51,0.00,,,0.00,WUHU21623XXSP,2013-01-25 00:57:00,
2013-01-24 19:02:00,20.5,5.1,29.60,SE,135,3.1,3.1,51,0.00,,,0.00,WUHU21623XXSP,2013-01-25 01:02:00,
2013-01-24 19:07:00,20.5,5.1,29.61,SE,135,0.0,6.0,51,0.00,,,0.00,WUHU21623XXSP,2013-01-25 01:07:00,
2013-01-24 19:12:00,20.5,5.5,29.60,SE,135,2.7,6.5,52,0.00,,,0.00,WUHU21623XXSP,2013-01-25 01:12:00,
2013-01-24 19:17:00,20.5,5.5,29.59,SE,135,0.0,6.5,52,0.00,,,0.00,WUHU21623XXSP,2013-01-25 01:17:00,
2013-01-24 19:22:00,20.5,5.5,29.58,SE,135,5.1,5.1,52,0.00,,,0.00,WUHU21623XXSP,2013-01-25 01:22:00,
2013-01-24 19:27:00,20.5,5.5,29.58,ESE,112,0.0,5.1,52,0.00,,,0.00,WUHU21623XXSP,2013-01-25 01:27:00,
2013-01-24 19:32:00,20.5,5.5,29.57,SE,135,2.9,2.9,52,0.00,,,0.00,WUHU21623XXSP,2013-01-25 01:32:00,
2013-01-24 19:37:00,20.3,5.4,29.57,SE,135,0.0,2.9,52,0.00,,,0.00,WUHU21623XXSP,2013-01-25 01:37:00,
2013-01-24 19:42:00,20.1,5.4,29.57,SSE,157,0.0,2.9,52,0.00,,,0.00,WUHU21623XXSP,2013-01-25 01:42:00,
2013-01-24 19:47:00,20.1,5.2,29.56,ESE,112,0.0,3.8,52,0.00,,,0.00,WUHU21623XXSP,2013-01-25 01:47:00,
2013-01-24 19:51:00,19.9,5.0,29.56,SE,135,0.0,3.8,52,0.00,,,0.00,WUHU21623XXSP,2013-01-25 01:51:00,
2013-01-24 19:56:00,19.9,5.0,29.56,SE,135,0.9,2.9,52,0.00,,,0.00,WUHU21623XXSP,2013-01-25 01:56:00,
2013-01-24 20:01:00,19.9,5.4,29.56,SE,135,0.0,4.5,53,0.00,,,0.00,WUHU21623XXSP,2013-01-25 02:01:00,
2013-01-24 20:07:00,19.8,5.3,29.56,SE,135,0.0,4.5,53,0.00,,,0.00,WUHU21623XXSP,2013-01-25 02:07:00,
2013-01-24 20:12:00,19.8,5.3,29.56,SE,135,0.0,4.9,53,0.00,,,0.00,WUHU21623XXSP,2013-01-25 02:12:00,
2013-01-24 20:17:00,19.8,5.3,29.56,SE,135,0.0,4.9,53,0.00,,,0.00,WUHU21623XXSP,2013-01-25 02:17:00,
2013-01-24 20:22:00,19.9,5.8,29.56,SE,135,0.9,6.0,54,0.00,,,0.00,WUHU21623XXSP,2013-01-25 02:22:00,
2013-01-24 20:27:00,19.9,5.8,29.56,SE,135,0.0,6.0,54,0.00,,,0.00,WUHU21623XXSP,2013-01-25 02:27:00,
2013-01-24 20:32:00,19.9,5.8,29.56,SE,135,1.8,1.8,54,0.00,,,0.00,WUHU21623XXSP,2013-01-25 02:32:00,
2013-01-24 20:37:00,19.9,5.8,29.56,SE,135,2.5,2.5,54,0.00,,,0.00,WUHU21623XXSP,2013-01-25 02:37:00,
2013-01-24 20:42:00,20.1,6.0,29.55,SE,135,0.0,2.5,54,0.00,,,0.00,WUHU21623XXSP,2013-01-25 02:42:00,
2013-01-24 20:47:00,20.1,6.4,29.55,SE,135,0.0,0.0,55,0.00,,,0.00,WUHU21623XXSP,2013-01-25 02:47:00,
2013-01-24 20:52:00,20.3,6.6,29.55,SE,135,0.0,0.0,55,0.00,,,0.00,WUHU21623XXSP,2013-01-25 02:52:00,
2013-01-24 20:57:00,20.3,6.6,29.55,SE,135,1.3,1.3,55,0.00,,,0.00,WUHU21623XXSP,2013-01-25 02:57:00,
2013-01-24 21:02:00,20.5,6.7,29.55,SE,135,0.0,1.3,55,0.00,,,0.00,WUHU21623XXSP,2013-01-25 03:02:00,
2013-01-24 21:07:00,20.5,6.7,29.56,ESE,112,0.0,0.9,55,0.00,,,0.00,WUHU21623XXSP,2013-01-25 03:07:00,
2013-01-24 21:12:00,20.5,6.7,29.56,SE,135,7.4,7.4,55,0.00,,,0.00,WUHU21623XXSP,2013-01-25 03:12:00,
2013-01-24 21:17:00,20.5,6.7,29.55,ESE,112,3.6,7.4,55,0.00,,,0.00,WUHU21623XXSP,2013-01-25 03:17:00,
2013-01-24 21:22:00,20.8,7.3,29.55,ESE,112,3.6,3.6,56,0.00,,,0.00,WUHU21623XXSP,2013-01-25 03:22:00,
2013-01-24 21:27:00,20.8,7.5,29.55,SE,135,0.0,5.1,56,0.00,,,0.00,WUHU21623XXSP,2013-01-25 03:27:00,
2013-01-24 21:32:00,20.8,7.5,29.55,SE,135,6.9,6.9,56,0.00,,,0.00,WUHU21623XXSP,2013-01-25 03:32:00,
2013-01-24 21:37:00,20.8,7.5,29.55,SE,135,0.0,6.9,56,0.00,,,0.00,WUHU21623XXSP,2013-01-25 03:37:00,
2013-01-24 21:42:00,20.8,7.5,29.56,SE,135,3.4,3.4,56,0.00,,,0.00,WUHU21623XXSP,2013-01-25 03:42:00,
2013-01-24 21:47:00,21.0,7.7,29.55,SE,135,3.4,3.4,56,0.00,,,0.00,WUHU21623XXSP,2013-01-25 03:47:00,
2013-01-24 21:52:00,21.0,7.7,29.54,SE,135,5.4,5.4,56,0.00,,,0.00,WUHU21623XXSP,2013-01-25 03:52:00,
2013-01-24 21:57:00,21.0,7.7,29.56,SSE,157,2.7,5.4,56,0.00,,,0.00,WUHU21623XXSP,2013-01-25 03:57:00,
2013-01-24 22:02:00,21.0,7.7,29.54,SE,135,5.1,5.1,56,0.00,,,0.00,WUHU21623XXSP,2013-01-25 04:02:00,
2013-01-24 22:07:00,21.0,7.7,29.53,SE,135,0.0,5.1,56,0.00,,,0.00,WUHU21623XXSP,2013-01-25 04:07:00,
2013-01-24 22:12:00,21.0,8.1,29.53,SE,135,8.1,8.1,57,0.00,,,0.00,WUHU21623XXSP,2013-01-25 04:12:00,
2013-01-24 22:17:00,21.0,8.1,29.52,SSE,157,0.9,8.1,57,0.00,,,0.00,WUHU21623XXSP,2013-01-25 04:17:00,
2013-01-24 22:22:00,21.0,8.1,29.52,SE,135,6.3,7.4,57,0.00,,,0.00,WUHU21623XXSP,2013-01-25 04:22:00,
2013-01-24 22:57:00,21.4,8.5,29.51,SE,135,2.5,2.5,57,0.00,,,0.00,WUHU21623XXSP,2013-01-25 04:57:00,
2013-01-24 23:57:00,22.1,8.8,29.46,South,180,6.9,6.9,56,0.00,,,0.00,WUHU21623XXSP,2013-01-25 05:57:00,